createdAt,value
2019-02-24T13:17:41.869Z,26.23
2019-02-24T13:22:16.230Z,26.43
2019-02-24T13:24:45.049Z,26.54
2019-02-24T13:27:13.149Z,26.68
2019-02-24T13:29:41.563Z,26.77
2019-02-24T13:32:14.832Z,26.75
2019-02-24T13:34:45.179Z,26.76
2019-02-24T13:37:13.292Z,26.66
2019-02-24T13:39:41.545Z,26.53
2019-02-24T13:42:09.885Z,26.35
2019-02-24T13:44:37.993Z,26.17
2019-02-24T13:47:07.174Z,26.08
2019-02-24T13:49:35.290Z,26.08
2019-02-24T13:52:03.343Z,26.06
2019-02-24T13:54:32.899Z,26.03
2019-02-24T13:57:01.555Z,26.01
2019-02-24T13:59:29.802Z,25.91
2019-02-24T14:01:59.204Z,25.77
2019-02-24T14:04:29.591Z,25.66
2019-02-24T14:09:47.510Z,25.44
2019-02-24T14:12:15.245Z,25.44
2019-02-24T14:14:48.860Z,25.46
2019-02-24T14:17:11.951Z,25.43
2019-02-24T14:19:39.574Z,25.32
2019-02-24T14:22:09.632Z,25.22
2019-02-24T14:24:37.117Z,25.12
2019-02-24T14:27:04.906Z,25.04
2019-02-24T14:29:32.573Z,24.94
2019-02-24T14:32:00.326Z,24.81
2019-02-24T14:34:30.447Z,24.61
2019-02-24T14:36:59.461Z,24.44
2019-02-24T14:39:27.229Z,24.26
2019-02-24T14:41:54.775Z,24.06
2019-02-24T15:01:11.345Z,23.30
2019-02-24T15:03:39.703Z,23.17
2019-02-24T15:06:07.845Z,23.06
2019-02-24T15:08:37.062Z,22.95
2019-02-24T15:11:05.140Z,22.80
2019-02-24T15:13:33.216Z,22.67
2019-02-24T15:16:01.656Z,22.55
2019-02-24T15:18:30.367Z,22.47
2019-02-24T15:20:58.818Z,22.42
2019-02-24T15:23:27.019Z,22.33
2019-02-24T15:25:55.097Z,22.28
2019-02-24T15:28:23.273Z,22.17
2019-02-24T15:30:51.345Z,22.03
2019-02-24T15:33:19.953Z,21.91
2019-02-24T15:35:48.481Z,21.77
2019-02-24T15:38:16.570Z,21.60
2019-02-24T15:40:44.640Z,21.42
2019-02-24T15:43:13.579Z,21.25
2019-02-24T15:45:41.897Z,21.07
2019-02-24T15:48:10.382Z,20.88
2019-02-24T15:50:38.430Z,20.70
2019-02-24T15:53:08.119Z,20.53
2019-02-24T15:55:36.176Z,20.37
2019-02-24T15:58:04.439Z,20.25
2019-02-24T16:00:32.811Z,20.16
2019-02-24T16:03:01.939Z,20.07
2019-02-24T16:05:30.271Z,19.96
2019-02-24T16:07:58.698Z,19.86
2019-02-24T16:10:26.761Z,19.76
2019-02-24T16:12:55.612Z,19.66
2019-02-24T16:15:23.922Z,19.57
2019-02-24T16:17:52.138Z,19.44
2019-02-24T16:20:23.244Z,19.31
2019-02-24T16:22:52.469Z,19.15
2019-02-24T16:25:21.030Z,18.97
2019-02-24T16:27:49.107Z,18.81
2019-02-24T16:30:17.268Z,18.64
2019-02-24T16:32:45.369Z,18.44
2019-02-24T16:35:13.792Z,18.25
2019-02-24T16:37:41.953Z,18.06
2019-02-24T16:40:13.829Z,17.88
2019-02-24T16:42:43.154Z,17.71
2019-02-24T16:45:11.924Z,17.55
2019-02-24T16:47:40.339Z,17.39
2019-02-24T16:50:11.126Z,17.27
2019-02-24T16:52:39.600Z,17.13
2019-02-24T16:55:09.110Z,16.99
2019-02-24T16:57:37.584Z,16.87
2019-02-24T17:00:09.052Z,16.75
2019-02-24T17:02:37.137Z,16.64
2019-02-24T17:05:06.134Z,16.53
2019-02-24T17:07:34.704Z,16.43
2019-02-24T17:10:05.329Z,16.35
2019-02-24T17:12:33.913Z,16.27
2019-02-24T17:15:02.070Z,16.20
2019-02-24T17:17:30.518Z,16.13
2019-02-24T17:19:59.722Z,16.06
2019-02-24T17:22:28.105Z,15.98
2019-02-24T17:24:56.976Z,15.92
2019-02-24T17:27:25.324Z,15.83
2019-02-24T17:29:53.573Z,15.75
2019-02-24T17:32:21.715Z,15.67
2019-02-24T17:34:50.161Z,15.57
2019-02-24T17:37:20.226Z,15.47
2019-02-24T17:39:48.236Z,15.36
2019-02-24T17:42:16.324Z,15.26
2019-02-24T17:44:45.080Z,15.16
2019-02-24T17:47:13.463Z,15.06
2019-02-24T17:49:41.675Z,14.96
2019-02-24T17:52:09.766Z,14.86
2019-02-24T17:54:39.545Z,14.76
2019-02-24T17:57:07.654Z,14.66
2019-02-24T17:59:40.422Z,14.53
2019-02-24T18:02:07.657Z,14.39
2019-02-24T18:04:35.889Z,14.27
2019-02-24T18:07:05.483Z,14.14
2019-02-24T18:09:33.807Z,14.03
2019-02-24T18:12:03.221Z,13.91
2019-02-24T18:14:32.517Z,13.81
2019-02-24T18:17:01.416Z,13.70
2019-02-24T18:19:30.213Z,13.59
2019-02-24T18:21:58.263Z,13.48
2019-02-24T18:24:26.375Z,13.37
2019-02-24T18:26:54.761Z,13.26
2019-02-24T18:29:23.402Z,13.13
2019-02-24T18:31:51.575Z,12.96
2019-02-24T18:34:19.929Z,12.76
2019-02-24T18:36:49.187Z,12.63
2019-02-24T18:39:17.630Z,12.52
2019-02-24T18:41:45.777Z,12.42
2019-02-24T18:44:16.768Z,12.33
2019-02-24T18:46:45.058Z,12.25
2019-02-24T18:49:13.471Z,12.18
2019-02-24T18:51:41.714Z,12.10
2019-02-24T18:54:09.819Z,12.01
2019-02-24T18:56:37.969Z,11.92
2019-02-24T18:59:06.799Z,11.83
2019-02-24T19:01:35.371Z,11.75
2019-02-24T19:04:03.793Z,11.67
2019-02-24T19:06:38.983Z,11.58
2019-02-24T19:09:04.024Z,11.48
2019-02-24T19:14:20.456Z,11.24
2019-02-24T19:16:49.220Z,11.10
2019-02-24T19:19:25.400Z,10.96
2019-02-24T19:21:48.570Z,10.85
2019-02-24T19:24:17.044Z,10.76
2019-02-24T19:26:45.494Z,10.70
2019-02-24T19:29:14.242Z,10.65
2019-02-24T19:31:42.602Z,10.58
2019-02-24T19:34:12.635Z,10.51
2019-02-24T19:36:41.139Z,10.44
2019-02-24T19:39:16.527Z,10.35
2019-02-24T19:41:45.000Z,10.25
2019-02-24T19:44:21.930Z,10.12
2019-02-24T19:46:50.554Z,10.03
2019-02-24T19:49:18.616Z,9.95
2019-02-24T19:51:48.238Z,9.91
2019-02-24T19:54:16.490Z,9.88
2019-02-24T19:56:45.240Z,9.85
2019-02-24T19:59:13.966Z,9.82
2019-02-24T20:01:42.354Z,9.78
2019-02-24T20:04:15.963Z,9.75
2019-02-24T20:06:50.445Z,9.70
2019-02-24T20:09:18.898Z,9.67
2019-02-24T20:11:47.224Z,9.60
2019-02-24T20:14:15.256Z,9.55
2019-02-24T20:16:43.489Z,9.52
2019-02-24T20:19:20.144Z,9.46
2019-02-24T20:21:50.396Z,9.40
2019-02-24T20:24:18.505Z,9.34
2019-02-24T20:26:46.910Z,9.28
2019-02-24T20:29:15.242Z,9.22
2019-02-24T20:31:52.431Z,9.16
2019-02-24T20:34:25.460Z,9.10
2019-02-24T20:36:52.034Z,9.03
2019-02-24T20:39:20.487Z,8.98
2019-02-24T20:41:49.569Z,8.93
2019-02-24T20:44:18.427Z,8.86
2019-02-24T20:46:53.743Z,8.79
2019-02-24T20:49:21.949Z,8.74
2019-02-24T20:51:50.255Z,8.71
2019-02-24T20:54:18.395Z,8.67
2019-02-24T20:56:47.947Z,8.65
2019-02-24T20:59:16.210Z,8.60
2019-02-24T21:01:44.738Z,8.57
2019-02-24T21:04:12.869Z,8.51
2019-02-24T21:06:41.232Z,8.45
2019-02-24T21:09:09.681Z,8.41
2019-02-24T21:11:38.324Z,8.37
2019-02-24T21:14:06.592Z,8.33
2019-02-24T21:16:35.106Z,8.30
2019-02-24T21:19:03.554Z,8.27
2019-02-24T21:21:31.835Z,8.22
2019-02-24T21:23:59.910Z,8.19
2019-02-24T21:26:28.226Z,8.14
2019-02-24T21:28:56.485Z,8.11
2019-02-24T21:31:24.577Z,8.05
2019-02-24T21:33:52.639Z,8.01
2019-02-24T21:36:20.735Z,7.96
2019-02-24T21:38:50.096Z,7.91
2019-02-24T21:41:18.276Z,7.87
2019-02-24T21:43:47.442Z,7.83
2019-02-24T21:46:15.637Z,7.79
2019-02-24T21:48:43.722Z,7.74
2019-02-24T21:51:11.786Z,7.70
2019-02-24T21:53:39.836Z,7.66
2019-02-24T21:56:07.939Z,7.60
2019-02-24T21:58:36.328Z,7.53
2019-02-24T22:01:05.316Z,7.46
2019-02-24T22:03:33.645Z,7.42
2019-02-24T22:06:02.840Z,7.37
2019-02-24T22:08:31.915Z,7.34
2019-02-24T22:11:00.020Z,7.27
2019-02-24T22:13:28.390Z,7.20
2019-02-24T22:15:56.526Z,7.16
2019-02-24T22:18:25.774Z,7.13
2019-02-24T22:20:53.928Z,7.11
2019-02-24T22:23:22.582Z,7.06
2019-02-24T22:25:51.115Z,7.01
2019-02-24T22:28:19.284Z,6.96
2019-02-24T22:30:47.377Z,6.90
2019-02-24T22:33:15.560Z,6.87
2019-02-24T22:35:43.641Z,6.84
2019-02-24T22:38:12.811Z,6.81
2019-02-24T22:40:42.478Z,6.77
2019-02-24T22:43:11.679Z,6.73
2019-02-24T22:45:40.223Z,6.70
2019-02-24T22:48:08.706Z,6.67
2019-02-24T22:50:36.864Z,6.63
2019-02-24T22:53:05.269Z,6.61
2019-02-24T22:55:33.465Z,6.57
2019-02-24T22:58:01.675Z,6.57
2019-02-24T23:01:01.800Z,6.55
2019-02-24T23:03:38.246Z,6.54
2019-02-24T23:06:06.978Z,6.52
2019-02-24T23:08:35.115Z,6.48
2019-02-24T23:11:05.501Z,6.46
2019-02-24T23:13:33.604Z,6.44
2019-02-24T23:16:01.675Z,6.42
2019-02-24T23:18:32.088Z,6.41
2019-02-24T23:21:00.242Z,6.38
2019-02-24T23:23:28.558Z,6.37
2019-02-24T23:25:56.734Z,6.36
2019-02-24T23:28:25.130Z,6.35
2019-02-24T23:30:53.315Z,6.33
2019-02-24T23:33:21.596Z,6.31
2019-02-24T23:35:49.702Z,6.28
2019-02-24T23:38:18.001Z,6.25
2019-02-24T23:40:46.075Z,6.22
2019-02-24T23:43:14.433Z,6.20
2019-02-24T23:45:43.795Z,6.18
2019-02-24T23:48:11.944Z,6.15
2019-02-24T23:50:40.099Z,6.14
2019-02-24T23:53:08.257Z,6.11
2019-02-24T23:55:36.342Z,6.07
2019-02-24T23:58:04.449Z,6.05
